Cymbeline — V7BG6 — position and weather

sailwx.info

Track history (hours):
 
Tides and Currents Weather Stations Pressure Air Temp Water Temp Dewpoint Dewpoint Depression Visibility Wind Speed Wind Dir Waves Ship Positions

Cymbeline

Last reported at 2018-Jan-01 04:55 UTC. Time now 2018-Feb-24 00:34 UTC.
Position N 07°17' W 014°51'.
Warning: this ship's position is 53 days out of date.

Length 225 m; draft 6 m.

Type: Cargo ship. MMSI: 538005135.

Date/timePositionNaut miles runAvg speedWind from/ knotsBaromVisibWave heightAir tempDewpointWater temp
2018-Jan-01 04:55N 07°17' W 014°51'4 4.6
2018-Jan-01 04:00N 07°20' W 014°53'3 4.7
2018-Jan-01 03:24N 07°23' W 014°55'38 4.6
2017-Dec-31 19:14N 07°52' W 015°18'1 4.1
2017-Dec-31 18:58N 07°53' W 015°19'2 4.2
2017-Dec-31 18:30N 07°55' W 015°20'2 4.3
2017-Dec-31 18:00N 07°57' W 015°21'2 4.3
2017-Dec-31 17:31N 07°59' W 015°23'2 4.4
2017-Dec-31 17:00N 08°00' W 015°24'2 4.5
2017-Dec-31 16:30N 08°02' W 015°25'10 4.4
2017-Dec-31 14:12N 08°10' W 015°31'34 4.6
2017-Dec-31 06:48N 08°37' W 015°53'1 4.7
2017-Dec-31 06:30N 08°38' W 015°54'2 4.6
2017-Dec-31 06:00N 08°40' W 015°55'3 4.7
2017-Dec-31 05:28N 08°42' W 015°57'2 4.8
2017-Dec-31 05:00N 08°44' W 015°58'19 4.8
2017-Dec-31 01:01N 08°58' W 016°10'0 4.8
2017-Dec-31 00:58N 08°58' W 016°10'4 4.7
2017-Dec-31 00:12N 09°01' W 016°13'1 4.8
2017-Dec-31 00:01N 09°02' W 016°13'2 4.8
2017-Dec-30 23:30N 09°04' W 016°15'3 4.9
2017-Dec-30 22:57N 09°06' W 016°16'2 4.9
2017-Dec-30 22:29N 09°08' W 016°18'10 4.8
2017-Dec-30 20:21N 09°16' W 016°24'2 4.6
2017-Dec-30 20:01N 09°17' W 016°25'2 4.6
2017-Dec-30 19:30N 09°19' W 016°26'3 4.5
2017-Dec-30 18:54N 09°21' W 016°28'2 4.5
2017-Dec-30 18:23N 09°23' W 016°30'2 4.5
2017-Dec-30 18:00N 09°24' W 016°31'2 4.6
2017-Dec-30 17:30N 09°26' W 016°32'2 4.6
2017-Dec-30 17:00N 09°28' W 016°34'2 4.6
2017-Dec-30 16:31N 09°30' W 016°35'2 4.6
2017-Dec-30 16:01N 09°32' W 016°36'2 4.3
2017-Dec-30 15:30N 09°33' W 016°38'2 3.8
2017-Dec-30 15:00N 09°35' W 016°39'3 5.7
2017-Dec-30 14:30N 09°37' W 016°41'2 4.5
2017-Dec-30 14:00N 09°39' W 016°42'2 4.7
2017-Dec-30 13:30N 09°41' W 016°44'2 4.5
2017-Dec-30 13:01N 09°42' W 016°45'3 5.0
2017-Dec-30 12:30N 09°44' W 016°47'4 5.2
2017-Dec-30 11:49N 09°47' W 016°49'71 4.6
2017-Dec-29 20:18N 10°46' W 017°29'1 4.5
2017-Dec-29 20:00N 10°47' W 017°30'2 4.4
2017-Dec-29 19:29N 10°49' W 017°31'2 4.4
2017-Dec-29 18:59N 10°51' W 017°32'2 4.4
2017-Dec-29 18:29N 10°53' W 017°33'17 4.4
2017-Dec-29 14:31N 11°10' W 017°38'0 4.1
2017-Dec-29 14:29N 11°10' W 017°38'2 4.2
2017-Dec-29 14:00N 11°12' W 017°38'2 4.3
2017-Dec-29 13:30N 11°14' W 017°39'3 4.4
2017-Dec-29 12:49N 11°17' W 017°39'  
Track history (hours):
 
Tides and Currents Weather Stations Pressure Air Temp Water Temp Dewpoint Dewpoint Depression Visibility Wind Speed Wind Dir Waves Ship Positions

Cymbeline

Last reported at 2018-Jan-01 04:55 UTC. Time now 2018-Feb-24 00:34 UTC.
Position N 07°17' W 014°51'.
Warning: this ship's position is 53 days out of date.

Length 225 m; draft 6 m.

Type: Cargo ship. MMSI: 538005135.

Date/timePositionNaut miles runAvg speedWind from/ knotsBaromVisibWave heightAir tempDewpointWater temp
2018-Jan-01 04:55N 07°17' W 014°51'4 4.6
2018-Jan-01 04:00N 07°20' W 014°53'3 4.7
2018-Jan-01 03:24N 07°23' W 014°55'38 4.6
2017-Dec-31 19:14N 07°52' W 015°18'1 4.1
2017-Dec-31 18:58N 07°53' W 015°19'2 4.2
2017-Dec-31 18:30N 07°55' W 015°20'2 4.3
2017-Dec-31 18:00N 07°57' W 015°21'2 4.3
2017-Dec-31 17:31N 07°59' W 015°23'2 4.4
2017-Dec-31 17:00N 08°00' W 015°24'2 4.5
2017-Dec-31 16:30N 08°02' W 015°25'10 4.4
2017-Dec-31 14:12N 08°10' W 015°31'34 4.6
2017-Dec-31 06:48N 08°37' W 015°53'1 4.7
2017-Dec-31 06:30N 08°38' W 015°54'2 4.6
2017-Dec-31 06:00N 08°40' W 015°55'3 4.7
2017-Dec-31 05:28N 08°42' W 015°57'2 4.8
2017-Dec-31 05:00N 08°44' W 015°58'19 4.8
2017-Dec-31 01:01N 08°58' W 016°10'0 4.8
2017-Dec-31 00:58N 08°58' W 016°10'4 4.7
2017-Dec-31 00:12N 09°01' W 016°13'1 4.8
2017-Dec-31 00:01N 09°02' W 016°13'2 4.8
2017-Dec-30 23:30N 09°04' W 016°15'3 4.9
2017-Dec-30 22:57N 09°06' W 016°16'2 4.9
2017-Dec-30 22:29N 09°08' W 016°18'10 4.8
2017-Dec-30 20:21N 09°16' W 016°24'2 4.6
2017-Dec-30 20:01N 09°17' W 016°25'2 4.6
2017-Dec-30 19:30N 09°19' W 016°26'3 4.5
2017-Dec-30 18:54N 09°21' W 016°28'2 4.5
2017-Dec-30 18:23N 09°23' W 016°30'2 4.5
2017-Dec-30 18:00N 09°24' W 016°31'2 4.6
2017-Dec-30 17:30N 09°26' W 016°32'2 4.6
2017-Dec-30 17:00N 09°28' W 016°34'2 4.6
2017-Dec-30 16:31N 09°30' W 016°35'2 4.6
2017-Dec-30 16:01N 09°32' W 016°36'2 4.3
2017-Dec-30 15:30N 09°33' W 016°38'2 3.8
2017-Dec-30 15:00N 09°35' W 016°39'3 5.7
2017-Dec-30 14:30N 09°37' W 016°41'2 4.5
2017-Dec-30 14:00N 09°39' W 016°42'2 4.7
2017-Dec-30 13:30N 09°41' W 016°44'2 4.5
2017-Dec-30 13:01N 09°42' W 016°45'3 5.0
2017-Dec-30 12:30N 09°44' W 016°47'4 5.2
2017-Dec-30 11:49N 09°47' W 016°49'71 4.6
2017-Dec-29 20:18N 10°46' W 017°29'1 4.5
2017-Dec-29 20:00N 10°47' W 017°30'2 4.4
2017-Dec-29 19:29N 10°49' W 017°31'2 4.4
2017-Dec-29 18:59N 10°51' W 017°32'2 4.4
2017-Dec-29 18:29N 10°53' W 017°33'17 4.4
2017-Dec-29 14:31N 11°10' W 017°38'0 4.1
2017-Dec-29 14:29N 11°10' W 017°38'2 4.2
2017-Dec-29 14:00N 11°12' W 017°38'2 4.3
2017-Dec-29 13:30N 11°14' W 017°39'3 4.4
2017-Dec-29 12:49N 11°17' W 017°39'  

Dump ship's entire track history